sensor_id;sensor_type;location;lat;lon;timestamp;P1;durP1;ratioP1;P2;durP2;ratioP2
75035;SDS011;64247;51.540;5.854;2022-10-31T00:00:13;18.70;;;10.73;;
75035;SDS011;64247;51.540;5.854;2022-10-31T00:02:16;20.38;;;10.60;;
75035;SDS011;64247;51.540;5.854;2022-10-31T00:04:17;27.23;;;11.68;;
75035;SDS011;64247;51.540;5.854;2022-10-31T00:06:17;20.85;;;10.48;;
75035;SDS011;64247;51.540;5.854;2022-10-31T00:08:19;23.45;;;11.05;;
75035;SDS011;64247;51.540;5.854;2022-10-31T00:10:19;23.55;;;11.80;;
75035;SDS011;64247;51.540;5.854;2022-10-31T00:12:20;22.55;;;11.00;;
75035;SDS011;64247;51.540;5.854;2022-10-31T00:14:21;24.70;;;11.75;;
75035;SDS011;64247;51.540;5.854;2022-10-31T00:16:22;18.20;;;11.23;;
75035;SDS011;64247;51.540;5.854;2022-10-31T00:18:24;18.17;;;9.77;;
75035;SDS011;64247;51.540;5.854;2022-10-31T00:20:25;23.67;;;11.93;;
75035;SDS011;64247;51.540;5.854;2022-10-31T00:22:26;18.15;;;10.55;;
75035;SDS011;64247;51.540;5.854;2022-10-31T00:24:27;18.83;;;10.73;;
75035;SDS011;64247;51.540;5.854;2022-10-31T00:26:28;21.30;;;11.57;;
75035;SDS011;64247;51.540;5.854;2022-10-31T00:28:29;25.15;;;11.82;;
75035;SDS011;64247;51.540;5.854;2022-10-31T00:30:30;25.08;;;11.32;;
75035;SDS011;64247;51.540;5.854;2022-10-31T00:32:31;17.70;;;10.73;;
75035;SDS011;64247;51.540;5.854;2022-10-31T00:34:32;19.52;;;10.52;;
75035;SDS011;64247;51.540;5.854;2022-10-31T00:36:33;20.00;;;12.20;;
75035;SDS011;64247;51.540;5.854;2022-10-31T00:38:34;18.35;;;10.52;;
75035;SDS011;64247;51.540;5.854;2022-10-31T00:40:35;18.33;;;10.70;;
75035;SDS011;64247;51.540;5.854;2022-10-31T00:42:36;17.33;;;10.57;;
75035;SDS011;64247;51.540;5.854;2022-10-31T00:44:37;18.83;;;10.77;;
75035;SDS011;64247;51.540;5.854;2022-10-31T00:46:37;24.00;;;11.65;;
75035;SDS011;64247;51.540;5.854;2022-10-31T00:48:38;23.90;;;11.02;;
75035;SDS011;64247;51.540;5.854;2022-10-31T00:50:40;21.65;;;9.82;;
75035;SDS011;64247;51.540;5.854;2022-10-31T00:52:41;28.27;;;11.00;;
75035;SDS011;64247;51.540;5.854;2022-10-31T00:54:41;16.40;;;9.18;;
75035;SDS011;64247;51.540;5.854;2022-10-31T00:56:42;16.98;;;10.18;;
75035;SDS011;64247;51.540;5.854;2022-10-31T00:58:43;19.13;;;10.35;;
75035;SDS011;64247;51.540;5.854;2022-10-31T01:00:44;16.88;;;9.75;;
75035;SDS011;64247;51.540;5.854;2022-10-31T01:02:44;16.20;;;9.95;;
75035;SDS011;64247;51.540;5.854;2022-10-31T01:04:45;19.58;;;10.45;;
75035;SDS011;64247;51.540;5.854;2022-10-31T01:06:47;21.25;;;10.40;;
75035;SDS011;64247;51.540;5.854;2022-10-31T01:08:50;23.13;;;10.45;;
75035;SDS011;64247;51.540;5.854;2022-10-31T01:10:59;17.45;;;9.82;;
75035;SDS011;64247;51.540;5.854;2022-10-31T01:13:23;21.83;;;10.40;;
75035;SDS011;64247;51.540;5.854;2022-10-31T01:15:24;18.27;;;11.07;;
75035;SDS011;64247;51.540;5.854;2022-10-31T01:17:24;21.70;;;12.07;;
75035;SDS011;64247;51.540;5.854;2022-10-31T01:19:25;21.55;;;11.32;;
75035;SDS011;64247;51.540;5.854;2022-10-31T01:21:29;20.33;;;10.07;;
75035;SDS011;64247;51.540;5.854;2022-10-31T01:23:33;23.40;;;11.73;;
75035;SDS011;64247;51.540;5.854;2022-10-31T01:25:34;18.45;;;10.27;;
75035;SDS011;64247;51.540;5.854;2022-10-31T01:27:35;20.52;;;10.98;;
75035;SDS011;64247;51.540;5.854;2022-10-31T01:29:36;17.05;;;10.90;;
75035;SDS011;64247;51.540;5.854;2022-10-31T01:31:37;19.23;;;11.23;;
75035;SDS011;64247;51.540;5.854;2022-10-31T01:33:39;19.75;;;10.55;;
75035;SDS011;64247;51.540;5.854;2022-10-31T01:35:40;20.75;;;11.43;;
75035;SDS011;64247;51.540;5.854;2022-10-31T01:37:41;17.13;;;10.02;;
75035;SDS011;64247;51.540;5.854;2022-10-31T01:39:41;17.20;;;11.00;;
75035;SDS011;64247;51.540;5.854;2022-10-31T01:41:47;19.33;;;9.85;;
75035;SDS011;64247;51.540;5.854;2022-10-31T01:43:56;17.42;;;10.52;;
75035;SDS011;64247;51.540;5.854;2022-10-31T01:45:59;21.23;;;11.00;;
75035;SDS011;64247;51.540;5.854;2022-10-31T01:48:00;19.48;;;10.32;;
75035;SDS011;64247;51.540;5.854;2022-10-31T01:50:02;24.65;;;12.25;;
75035;SDS011;64247;51.540;5.854;2022-10-31T01:52:14;19.98;;;11.23;;
75035;SDS011;64247;51.540;5.854;2022-10-31T01:54:24;18.85;;;10.25;;
75035;SDS011;64247;51.540;5.854;2022-10-31T01:56:30;20.95;;;10.93;;
75035;SDS011;64247;51.540;5.854;2022-10-31T01:58:34;24.83;;;10.40;;
75035;SDS011;64247;51.540;5.854;2022-10-31T02:00:35;20.00;;;11.57;;
75035;SDS011;64247;51.540;5.854;2022-10-31T02:02:36;21.58;;;10.00;;
75035;SDS011;64247;51.540;5.854;2022-10-31T02:04:37;18.00;;;9.75;;
75035;SDS011;64247;51.540;5.854;2022-10-31T02:06:46;18.40;;;11.50;;
75035;SDS011;64247;51.540;5.854;2022-10-31T02:08:52;20.50;;;10.95;;
75035;SDS011;64247;51.540;5.854;2022-10-31T02:10:58;25.65;;;11.45;;
75035;SDS011;64247;51.540;5.854;2022-10-31T02:13:01;20.20;;;10.52;;
75035;SDS011;64247;51.540;5.854;2022-10-31T02:15:03;19.38;;;10.98;;
75035;SDS011;64247;51.540;5.854;2022-10-31T02:17:05;24.52;;;11.32;;
75035;SDS011;64247;51.540;5.854;2022-10-31T02:19:08;22.80;;;10.73;;
75035;SDS011;64247;51.540;5.854;2022-10-31T02:32:01;16.92;;;10.00;;
75035;SDS011;64247;51.540;5.854;2022-10-31T02:34:21;18.90;;;10.63;;
75035;SDS011;64247;51.540;5.854;2022-10-31T02:41:44;18.52;;;10.45;;
75035;SDS011;64247;51.540;5.854;2022-10-31T02:46:52;19.85;;;11.07;;
75035;SDS011;64247;51.540;5.854;2022-10-31T02:49:03;19.88;;;11.30;;
75035;SDS011;64247;51.540;5.854;2022-10-31T02:51:12;21.15;;;10.85;;
75035;SDS011;64247;51.540;5.854;2022-10-31T02:53:16;21.67;;;11.43;;
75035;SDS011;64247;51.540;5.854;2022-10-31T02:58:02;19.75;;;11.80;;
75035;SDS011;64247;51.540;5.854;2022-10-31T03:00:10;19.23;;;12.25;;
75035;SDS011;64247;51.540;5.854;2022-10-31T03:13:05;20.25;;;11.15;;
75035;SDS011;64247;51.540;5.854;2022-10-31T03:15:33;21.20;;;12.10;;
75035;SDS011;64247;51.540;5.854;2022-10-31T03:17:41;19.00;;;10.55;;
75035;SDS011;64247;51.540;5.854;2022-10-31T03:20:06;23.15;;;11.02;;
75035;SDS011;64247;51.540;5.854;2022-10-31T03:22:17;23.13;;;10.32;;
75035;SDS011;64247;51.540;5.854;2022-10-31T03:24:24;21.77;;;11.82;;
75035;SDS011;64247;51.540;5.854;2022-10-31T03:26:28;19.15;;;10.82;;
75035;SDS011;64247;51.540;5.854;2022-10-31T03:28:30;15.15;;;10.40;;
75035;SDS011;64247;51.540;5.854;2022-10-31T03:30:38;22.30;;;10.20;;
75035;SDS011;64247;51.540;5.854;2022-10-31T03:32:44;18.52;;;11.13;;
75035;SDS011;64247;51.540;5.854;2022-10-31T03:34:50;24.33;;;10.65;;
75035;SDS011;64247;51.540;5.854;2022-10-31T03:36:56;20.10;;;9.23;;
75035;SDS011;64247;51.540;5.854;2022-10-31T03:39:01;16.15;;;10.18;;
75035;SDS011;64247;51.540;5.854;2022-10-31T03:41:05;20.88;;;10.52;;
75035;SDS011;64247;51.540;5.854;2022-10-31T03:43:13;21.50;;;10.57;;
75035;SDS011;64247;51.540;5.854;2022-10-31T03:45:21;19.50;;;11.52;;
75035;SDS011;64247;51.540;5.854;2022-10-31T03:47:25;24.27;;;11.50;;
75035;SDS011;64247;51.540;5.854;2022-10-31T03:49:26;20.73;;;11.15;;
75035;SDS011;64247;51.540;5.854;2022-10-31T03:51:33;20.50;;;11.48;;
75035;SDS011;64247;51.540;5.854;2022-10-31T03:53:56;20.60;;;10.25;;
75035;SDS011;64247;51.540;5.854;2022-10-31T03:56:25;20.13;;;11.02;;
75035;SDS011;64247;51.540;5.854;2022-10-31T03:58:45;22.75;;;12.48;;
75035;SDS011;64247;51.540;5.854;2022-10-31T04:00:54;20.00;;;10.35;;
75035;SDS011;64247;51.540;5.854;2022-10-31T04:03:04;20.95;;;11.75;;
75035;SDS011;64247;51.540;5.854;2022-10-31T04:05:18;23.70;;;11.80;;
75035;SDS011;64247;51.540;5.854;2022-10-31T04:07:20;23.67;;;11.13;;
75035;SDS011;64247;51.540;5.854;2022-10-31T04:09:24;24.73;;;11.55;;
75035;SDS011;64247;51.540;5.854;2022-10-31T04:11:28;23.52;;;12.20;;
75035;SDS011;64247;51.540;5.854;2022-10-31T04:13:51;21.58;;;10.73;;
75035;SDS011;64247;51.540;5.854;2022-10-31T04:15:56;20.23;;;10.40;;
75035;SDS011;64247;51.540;5.854;2022-10-31T04:17:59;22.15;;;11.18;;
75035;SDS011;64247;51.540;5.854;2022-10-31T04:20:04;20.08;;;10.93;;
75035;SDS011;64247;51.540;5.854;2022-10-31T04:22:06;25.35;;;11.60;;
75035;SDS011;64247;51.540;5.854;2022-10-31T04:24:07;22.92;;;11.02;;
75035;SDS011;64247;51.540;5.854;2022-10-31T04:26:08;23.17;;;11.45;;
75035;SDS011;64247;51.540;5.854;2022-10-31T04:28:12;19.58;;;9.95;;
75035;SDS011;64247;51.540;5.854;2022-10-31T04:30:12;23.60;;;11.77;;
75035;SDS011;64247;51.540;5.854;2022-10-31T04:32:14;21.55;;;11.73;;
75035;SDS011;64247;51.540;5.854;2022-10-31T04:34:15;18.15;;;11.25;;
75035;SDS011;64247;51.540;5.854;2022-10-31T04:36:17;15.85;;;10.25;;
75035;SDS011;64247;51.540;5.854;2022-10-31T04:38:17;22.77;;;10.52;;
75035;SDS011;64247;51.540;5.854;2022-10-31T04:40:19;19.38;;;9.70;;
75035;SDS011;64247;51.540;5.854;2022-10-31T04:42:38;21.17;;;10.90;;
75035;SDS011;64247;51.540;5.854;2022-10-31T04:44:40;17.02;;;9.35;;
75035;SDS011;64247;51.540;5.854;2022-10-31T04:46:42;27.77;;;13.45;;
75035;SDS011;64247;51.540;5.854;2022-10-31T04:48:43;20.58;;;11.95;;
75035;SDS011;64247;51.540;5.854;2022-10-31T04:50:45;25.33;;;12.30;;
75035;SDS011;64247;51.540;5.854;2022-10-31T04:52:47;32.83;;;13.73;;
75035;SDS011;64247;51.540;5.854;2022-10-31T04:54:51;23.67;;;12.90;;
75035;SDS011;64247;51.540;5.854;2022-10-31T04:57:21;31.08;;;13.55;;
75035;SDS011;64247;51.540;5.854;2022-10-31T04:59:22;30.58;;;14.82;;
75035;SDS011;64247;51.540;5.854;2022-10-31T05:01:26;29.17;;;14.00;;
75035;SDS011;64247;51.540;5.854;2022-10-31T05:03:28;26.02;;;14.52;;
75035;SDS011;64247;51.540;5.854;2022-10-31T05:05:30;29.10;;;14.60;;
75035;SDS011;64247;51.540;5.854;2022-10-31T05:07:37;26.38;;;13.75;;
75035;SDS011;64247;51.540;5.854;2022-10-31T05:09:41;25.08;;;13.70;;
75035;SDS011;64247;51.540;5.854;2022-10-31T05:11:41;33.22;;;14.38;;
75035;SDS011;64247;51.540;5.854;2022-10-31T05:14:05;30.30;;;13.65;;
75035;SDS011;64247;51.540;5.854;2022-10-31T05:16:24;26.33;;;15.20;;
75035;SDS011;64247;51.540;5.854;2022-10-31T05:18:54;31.35;;;15.00;;
75035;SDS011;64247;51.540;5.854;2022-10-31T05:21:17;21.80;;;12.43;;
75035;SDS011;64247;51.540;5.854;2022-10-31T05:23:23;31.55;;;14.30;;
75035;SDS011;64247;51.540;5.854;2022-10-31T05:25:25;28.92;;;13.98;;
75035;SDS011;64247;51.540;5.854;2022-10-31T05:27:27;27.08;;;14.40;;
75035;SDS011;64247;51.540;5.854;2022-10-31T05:29:29;27.58;;;14.27;;
75035;SDS011;64247;51.540;5.854;2022-10-31T05:31:35;29.48;;;14.13;;
75035;SDS011;64247;51.540;5.854;2022-10-31T05:33:36;29.95;;;15.38;;
75035;SDS011;64247;51.540;5.854;2022-10-31T05:35:55;25.65;;;13.95;;
75035;SDS011;64247;51.540;5.854;2022-10-31T05:38:08;26.15;;;13.50;;
75035;SDS011;64247;51.540;5.854;2022-10-31T05:40:10;28.17;;;14.10;;
75035;SDS011;64247;51.540;5.854;2022-10-31T05:42:13;31.50;;;13.65;;
75035;SDS011;64247;51.540;5.854;2022-10-31T05:44:14;26.52;;;13.85;;
75035;SDS011;64247;51.540;5.854;2022-10-31T05:46:33;32.85;;;15.30;;
75035;SDS011;64247;51.540;5.854;2022-10-31T05:48:52;33.05;;;15.00;;
75035;SDS011;64247;51.540;5.854;2022-10-31T05:51:16;30.77;;;14.55;;
75035;SDS011;64247;51.540;5.854;2022-10-31T05:53:17;38.85;;;15.20;;
75035;SDS011;64247;51.540;5.854;2022-10-31T05:55:18;27.15;;;14.95;;
75035;SDS011;64247;51.540;5.854;2022-10-31T05:57:35;26.40;;;12.23;;
75035;SDS011;64247;51.540;5.854;2022-10-31T05:59:36;24.42;;;12.88;;
75035;SDS011;64247;51.540;5.854;2022-10-31T06:01:37;24.83;;;12.35;;
75035;SDS011;64247;51.540;5.854;2022-10-31T06:03:42;24.15;;;12.77;;
75035;SDS011;64247;51.540;5.854;2022-10-31T06:05:43;20.58;;;11.15;;
75035;SDS011;64247;51.540;5.854;2022-10-31T06:07:44;21.50;;;13.07;;
75035;SDS011;64247;51.540;5.854;2022-10-31T06:09:45;24.17;;;10.88;;
75035;SDS011;64247;51.540;5.854;2022-10-31T06:11:46;37.05;;;13.63;;
75035;SDS011;64247;51.540;5.854;2022-10-31T06:14:19;27.40;;;13.35;;
75035;SDS011;64247;51.540;5.854;2022-10-31T06:16:32;41.60;;;12.30;;
75035;SDS011;64247;51.540;5.854;2022-10-31T06:18:45;70.40;;;13.15;;
75035;SDS011;64247;51.540;5.854;2022-10-31T06:20:46;89.75;;;13.95;;
75035;SDS011;64247;51.540;5.854;2022-10-31T06:22:47;25.45;;;14.50;;
75035;SDS011;64247;51.540;5.854;2022-10-31T06:24:48;30.00;;;15.20;;
75035;SDS011;64247;51.540;5.854;2022-10-31T06:27:11;33.80;;;15.48;;
75035;SDS011;64247;51.540;5.854;2022-10-31T06:29:11;30.02;;;16.27;;
75035;SDS011;64247;51.540;5.854;2022-10-31T06:31:31;32.38;;;15.35;;
75035;SDS011;64247;51.540;5.854;2022-10-31T06:33:32;34.50;;;16.42;;
75035;SDS011;64247;51.540;5.854;2022-10-31T06:35:35;34.67;;;16.52;;
75035;SDS011;64247;51.540;5.854;2022-10-31T06:37:36;32.20;;;15.43;;
75035;SDS011;64247;51.540;5.854;2022-10-31T06:39:54;24.08;;;11.98;;
75035;SDS011;64247;51.540;5.854;2022-10-31T06:41:55;19.83;;;11.70;;
75035;SDS011;64247;51.540;5.854;2022-10-31T06:43:57;25.52;;;12.20;;
75035;SDS011;64247;51.540;5.854;2022-10-31T06:46:21;42.75;;;12.35;;
75035;SDS011;64247;51.540;5.854;2022-10-31T06:48:40;47.10;;;13.35;;
75035;SDS011;64247;51.540;5.854;2022-10-31T06:50:52;37.13;;;12.35;;
75035;SDS011;64247;51.540;5.854;2022-10-31T06:52:54;36.92;;;13.38;;
75035;SDS011;64247;51.540;5.854;2022-10-31T06:54:56;28.92;;;11.55;;
75035;SDS011;64247;51.540;5.854;2022-10-31T06:56:57;23.05;;;11.02;;
75035;SDS011;64247;51.540;5.854;2022-10-31T06:58:58;30.67;;;10.90;;
75035;SDS011;64247;51.540;5.854;2022-10-31T07:01:18;21.35;;;9.73;;
75035;SDS011;64247;51.540;5.854;2022-10-31T07:03:19;21.67;;;10.77;;
75035;SDS011;64247;51.540;5.854;2022-10-31T07:05:21;18.63;;;9.88;;
75035;SDS011;64247;51.540;5.854;2022-10-31T07:07:22;15.40;;;9.90;;
75035;SDS011;64247;51.540;5.854;2022-10-31T07:09:24;21.55;;;10.15;;
75035;SDS011;64247;51.540;5.854;2022-10-31T07:11:26;17.95;;;11.05;;
75035;SDS011;64247;51.540;5.854;2022-10-31T07:13:29;22.48;;;9.68;;
75035;SDS011;64247;51.540;5.854;2022-10-31T07:15:41;18.55;;;10.65;;
75035;SDS011;64247;51.540;5.854;2022-10-31T07:17:43;23.90;;;11.00;;
75035;SDS011;64247;51.540;5.854;2022-10-31T07:19:44;20.20;;;10.30;;
75035;SDS011;64247;51.540;5.854;2022-10-31T07:21:46;19.38;;;11.45;;
75035;SDS011;64247;51.540;5.854;2022-10-31T07:23:49;18.60;;;10.82;;
75035;SDS011;64247;51.540;5.854;2022-10-31T07:26:12;19.40;;;10.57;;
75035;SDS011;64247;51.540;5.854;2022-10-31T07:28:18;21.25;;;12.27;;
75035;SDS011;64247;51.540;5.854;2022-10-31T07:30:23;20.30;;;11.68;;
75035;SDS011;64247;51.540;5.854;2022-10-31T07:32:27;23.10;;;12.30;;
75035;SDS011;64247;51.540;5.854;2022-10-31T07:34:37;20.42;;;11.32;;
75035;SDS011;64247;51.540;5.854;2022-10-31T07:37:04;19.77;;;12.10;;
75035;SDS011;64247;51.540;5.854;2022-10-31T07:39:04;20.55;;;13.13;;
75035;SDS011;64247;51.540;5.854;2022-10-31T07:41:08;21.70;;;13.43;;
75035;SDS011;64247;51.540;5.854;2022-10-31T07:43:14;16.35;;;11.02;;
75035;SDS011;64247;51.540;5.854;2022-10-31T07:45:31;14.93;;;10.60;;
75035;SDS011;64247;51.540;5.854;2022-10-31T07:48:01;18.25;;;11.02;;
75035;SDS011;64247;51.540;5.854;2022-10-31T07:50:22;17.38;;;9.95;;
75035;SDS011;64247;51.540;5.854;2022-10-31T07:52:42;18.38;;;10.82;;
75035;SDS011;64247;51.540;5.854;2022-10-31T07:55:04;17.60;;;11.27;;
75035;SDS011;64247;51.540;5.854;2022-10-31T07:57:08;13.95;;;9.30;;
75035;SDS011;64247;51.540;5.854;2022-10-31T07:59:09;16.08;;;10.40;;
75035;SDS011;64247;51.540;5.854;2022-10-31T08:01:10;14.68;;;9.68;;
75035;SDS011;64247;51.540;5.854;2022-10-31T08:03:20;13.30;;;9.70;;
75035;SDS011;64247;51.540;5.854;2022-10-31T08:05:40;20.13;;;10.98;;
75035;SDS011;64247;51.540;5.854;2022-10-31T08:08:00;13.15;;;9.05;;
75035;SDS011;64247;51.540;5.854;2022-10-31T08:10:01;19.27;;;11.77;;
75035;SDS011;64247;51.540;5.854;2022-10-31T08:12:04;19.33;;;11.43;;
75035;SDS011;64247;51.540;5.854;2022-10-31T08:14:07;20.10;;;11.43;;
75035;SDS011;64247;51.540;5.854;2022-10-31T08:16:08;11.10;;;8.27;;
75035;SDS011;64247;51.540;5.854;2022-10-31T08:18:16;13.82;;;10.65;;
75035;SDS011;64247;51.540;5.854;2022-10-31T08:20:17;15.70;;;9.88;;
75035;SDS011;64247;51.540;5.854;2022-10-31T08:22:20;15.35;;;11.25;;
75035;SDS011;64247;51.540;5.854;2022-10-31T08:24:22;19.98;;;10.63;;
75035;SDS011;64247;51.540;5.854;2022-10-31T08:26:23;21.02;;;12.20;;
75035;SDS011;64247;51.540;5.854;2022-10-31T08:28:25;16.15;;;11.15;;
75035;SDS011;64247;51.540;5.854;2022-10-31T08:30:29;18.65;;;11.32;;
75035;SDS011;64247;51.540;5.854;2022-10-31T08:35:34;16.88;;;10.75;;
75035;SDS011;64247;51.540;5.854;2022-10-31T08:37:58;18.52;;;10.57;;
75035;SDS011;64247;51.540;5.854;2022-10-31T08:40:00;15.50;;;11.00;;
75035;SDS011;64247;51.540;5.854;2022-10-31T08:42:01;16.33;;;11.45;;
75035;SDS011;64247;51.540;5.854;2022-10-31T08:44:02;17.85;;;11.25;;
75035;SDS011;64247;51.540;5.854;2022-10-31T08:46:03;14.75;;;10.48;;
75035;SDS011;64247;51.540;5.854;2022-10-31T08:48:05;16.95;;;12.15;;
75035;SDS011;64247;51.540;5.854;2022-10-31T08:50:11;19.50;;;11.60;;
75035;SDS011;64247;51.540;5.854;2022-10-31T08:52:11;19.88;;;11.52;;
75035;SDS011;64247;51.540;5.854;2022-10-31T08:54:14;22.55;;;11.85;;
75035;SDS011;64247;51.540;5.854;2022-10-31T08:56:54;19.80;;;11.93;;
75035;SDS011;64247;51.540;5.854;2022-10-31T08:59:07;19.33;;;12.02;;
75035;SDS011;64247;51.540;5.854;2022-10-31T09:01:26;21.33;;;12.63;;
75035;SDS011;64247;51.540;5.854;2022-10-31T09:03:30;22.17;;;12.00;;
75035;SDS011;64247;51.540;5.854;2022-10-31T09:05:33;22.27;;;12.88;;
75035;SDS011;64247;51.540;5.854;2022-10-31T09:07:34;21.23;;;13.60;;
75035;SDS011;64247;51.540;5.854;2022-10-31T09:09:35;20.40;;;12.80;;
75035;SDS011;64247;51.540;5.854;2022-10-31T09:11:36;23.42;;;12.55;;
75035;SDS011;64247;51.540;5.854;2022-10-31T09:14:00;28.02;;;13.82;;
75035;SDS011;64247;51.540;5.854;2022-10-31T09:16:26;17.60;;;12.15;;
75035;SDS011;64247;51.540;5.854;2022-10-31T09:18:28;19.05;;;11.65;;
75035;SDS011;64247;51.540;5.854;2022-10-31T09:20:32;19.90;;;11.80;;
75035;SDS011;64247;51.540;5.854;2022-10-31T09:22:34;17.42;;;10.65;;
75035;SDS011;64247;51.540;5.854;2022-10-31T09:24:35;24.13;;;13.05;;
75035;SDS011;64247;51.540;5.854;2022-10-31T09:26:36;19.75;;;11.88;;
75035;SDS011;64247;51.540;5.854;2022-10-31T09:28:41;24.60;;;13.73;;
75035;SDS011;64247;51.540;5.854;2022-10-31T09:30:45;21.00;;;11.68;;
75035;SDS011;64247;51.540;5.854;2022-10-31T09:32:58;20.85;;;12.60;;
75035;SDS011;64247;51.540;5.854;2022-10-31T09:35:00;18.83;;;11.52;;
75035;SDS011;64247;51.540;5.854;2022-10-31T09:37:02;27.50;;;12.93;;
75035;SDS011;64247;51.540;5.854;2022-10-31T09:39:02;21.10;;;12.02;;
75035;SDS011;64247;51.540;5.854;2022-10-31T09:41:13;18.45;;;11.85;;
75035;SDS011;64247;51.540;5.854;2022-10-31T09:51:48;20.58;;;12.77;;
75035;SDS011;64247;51.540;5.854;2022-10-31T09:56:41;27.35;;;12.95;;
75035;SDS011;64247;51.540;5.854;2022-10-31T09:58:46;23.10;;;13.93;;
75035;SDS011;64247;51.540;5.854;2022-10-31T10:00:51;21.85;;;12.65;;
75035;SDS011;64247;51.540;5.854;2022-10-31T10:03:01;22.08;;;14.45;;
75035;SDS011;64247;51.540;5.854;2022-10-31T10:05:37;22.08;;;12.93;;
75035;SDS011;64247;51.540;5.854;2022-10-31T10:15:19;27.55;;;12.60;;
75035;SDS011;64247;51.540;5.854;2022-10-31T10:18:05;21.40;;;12.00;;
75035;SDS011;64247;51.540;5.854;2022-10-31T10:20:53;20.15;;;11.70;;
75035;SDS011;64247;51.540;5.854;2022-10-31T10:26:34;22.08;;;11.52;;
75035;SDS011;64247;51.540;5.854;2022-10-31T10:30:49;21.80;;;13.25;;
75035;SDS011;64247;51.540;5.854;2022-10-31T10:33:02;23.92;;;12.20;;
75035;SDS011;64247;51.540;5.854;2022-10-31T10:37:39;24.77;;;12.23;;
75035;SDS011;64247;51.540;5.854;2022-10-31T10:39:46;22.08;;;12.07;;
75035;SDS011;64247;51.540;5.854;2022-10-31T10:41:55;22.77;;;12.75;;
75035;SDS011;64247;51.540;5.854;2022-10-31T10:44:17;23.27;;;12.30;;
75035;SDS011;64247;51.540;5.854;2022-10-31T10:49:29;23.60;;;13.05;;
75035;SDS011;64247;51.540;5.854;2022-10-31T10:51:45;24.13;;;11.60;;
75035;SDS011;64247;51.540;5.854;2022-10-31T10:54:13;24.90;;;13.18;;
75035;SDS011;64247;51.540;5.854;2022-10-31T10:59:59;22.52;;;12.27;;
75035;SDS011;64247;51.540;5.854;2022-10-31T11:02:17;20.30;;;11.40;;
75035;SDS011;64247;51.540;5.854;2022-10-31T11:04:26;26.10;;;12.48;;
75035;SDS011;64247;51.540;5.854;2022-10-31T11:06:36;23.20;;;12.07;;
75035;SDS011;64247;51.540;5.854;2022-10-31T11:08:37;17.75;;;11.35;;
75035;SDS011;64247;51.540;5.854;2022-10-31T11:10:38;21.67;;;12.10;;
75035;SDS011;64247;51.540;5.854;2022-10-31T11:12:39;19.33;;;11.60;;
75035;SDS011;64247;51.540;5.854;2022-10-31T11:14:44;22.35;;;12.18;;
75035;SDS011;64247;51.540;5.854;2022-10-31T11:19:37;22.58;;;12.57;;
75035;SDS011;64247;51.540;5.854;2022-10-31T11:21:38;19.10;;;12.02;;
75035;SDS011;64247;51.540;5.854;2022-10-31T11:23:39;24.88;;;12.63;;
75035;SDS011;64247;51.540;5.854;2022-10-31T11:25:40;22.88;;;10.15;;
75035;SDS011;64247;51.540;5.854;2022-10-31T11:28:04;22.88;;;10.52;;
75035;SDS011;64247;51.540;5.854;2022-10-31T11:30:11;20.08;;;10.52;;
75035;SDS011;64247;51.540;5.854;2022-10-31T11:32:20;18.13;;;10.07;;
75035;SDS011;64247;51.540;5.854;2022-10-31T11:36:54;18.50;;;9.82;;
75035;SDS011;64247;51.540;5.854;2022-10-31T11:39:30;21.40;;;10.73;;
75035;SDS011;64247;51.540;5.854;2022-10-31T11:41:32;23.52;;;11.40;;
75035;SDS011;64247;51.540;5.854;2022-10-31T11:43:46;20.95;;;11.77;;
75035;SDS011;64247;51.540;5.854;2022-10-31T11:46:15;18.90;;;9.68;;
75035;SDS011;64247;51.540;5.854;2022-10-31T11:48:39;22.58;;;11.25;;
75035;SDS011;64247;51.540;5.854;2022-10-31T11:50:49;19.63;;;10.88;;
75035;SDS011;64247;51.540;5.854;2022-10-31T11:52:55;20.98;;;10.43;;
75035;SDS011;64247;51.540;5.854;2022-10-31T11:55:01;19.50;;;10.73;;
75035;SDS011;64247;51.540;5.854;2022-10-31T11:59:56;18.52;;;10.18;;
75035;SDS011;64247;51.540;5.854;2022-10-31T12:02:24;17.25;;;9.55;;
75035;SDS011;64247;51.540;5.854;2022-10-31T12:04:29;16.08;;;9.00;;
75035;SDS011;64247;51.540;5.854;2022-10-31T12:06:42;17.10;;;9.15;;
75035;SDS011;64247;51.540;5.854;2022-10-31T12:08:46;19.42;;;10.10;;
75035;SDS011;64247;51.540;5.854;2022-10-31T12:14:50;19.50;;;9.52;;
75035;SDS011;64247;51.540;5.854;2022-10-31T12:17:15;19.33;;;10.90;;
75035;SDS011;64247;51.540;5.854;2022-10-31T12:19:32;18.90;;;9.32;;
75035;SDS011;64247;51.540;5.854;2022-10-31T12:37:37;19.02;;;8.82;;
75035;SDS011;64247;51.540;5.854;2022-10-31T12:55:28;16.92;;;7.13;;
75035;SDS011;64247;51.540;5.854;2022-10-31T12:58:55;14.25;;;8.18;;
75035;SDS011;64247;51.540;5.854;2022-10-31T13:00:48;16.65;;;9.15;;
75035;SDS011;64247;51.540;5.854;2022-10-31T13:03:17;14.55;;;6.95;;
75035;SDS011;64247;51.540;5.854;2022-10-31T13:05:48;15.18;;;8.88;;
75035;SDS011;64247;51.540;5.854;2022-10-31T13:07:58;20.52;;;10.18;;
75035;SDS011;64247;51.540;5.854;2022-10-31T13:10:36;20.15;;;10.30;;
75035;SDS011;64247;51.540;5.854;2022-10-31T13:12:55;11.68;;;8.73;;
75035;SDS011;64247;51.540;5.854;2022-10-31T13:15:27;18.65;;;10.05;;
75035;SDS011;64247;51.540;5.854;2022-10-31T13:17:42;14.32;;;7.55;;
75035;SDS011;64247;51.540;5.854;2022-10-31T13:19:49;15.90;;;9.60;;
75035;SDS011;64247;51.540;5.854;2022-10-31T13:22:07;18.25;;;10.27;;
75035;SDS011;64247;51.540;5.854;2022-10-31T13:24:19;19.80;;;10.15;;
75035;SDS011;64247;51.540;5.854;2022-10-31T13:26:36;21.10;;;10.20;;
75035;SDS011;64247;51.540;5.854;2022-10-31T13:29:36;17.27;;;9.68;;
75035;SDS011;64247;51.540;5.854;2022-10-31T13:31:25;19.40;;;10.02;;
75035;SDS011;64247;51.540;5.854;2022-10-31T13:33:30;17.02;;;9.45;;
75035;SDS011;64247;51.540;5.854;2022-10-31T13:44:39;18.13;;;9.25;;
75035;SDS011;64247;51.540;5.854;2022-10-31T13:46:41;18.70;;;9.85;;
75035;SDS011;64247;51.540;5.854;2022-10-31T13:48:44;20.05;;;10.40;;
75035;SDS011;64247;51.540;5.854;2022-10-31T13:50:55;19.27;;;9.57;;
75035;SDS011;64247;51.540;5.854;2022-10-31T13:53:22;17.13;;;9.27;;
75035;SDS011;64247;51.540;5.854;2022-10-31T13:55:41;18.48;;;9.73;;
75035;SDS011;64247;51.540;5.854;2022-10-31T13:57:45;16.27;;;10.52;;
75035;SDS011;64247;51.540;5.854;2022-10-31T13:59:50;18.10;;;9.98;;
75035;SDS011;64247;51.540;5.854;2022-10-31T14:01:58;20.20;;;9.63;;
75035;SDS011;64247;51.540;5.854;2022-10-31T14:04:06;19.65;;;9.32;;
75035;SDS011;64247;51.540;5.854;2022-10-31T14:06:16;18.20;;;10.70;;
75035;SDS011;64247;51.540;5.854;2022-10-31T14:08:18;14.45;;;7.65;;
75035;SDS011;64247;51.540;5.854;2022-10-31T14:10:34;17.00;;;8.70;;
75035;SDS011;64247;51.540;5.854;2022-10-31T14:12:48;15.95;;;8.40;;
75035;SDS011;64247;51.540;5.854;2022-10-31T14:14:51;18.88;;;8.65;;
75035;SDS011;64247;51.540;5.854;2022-10-31T14:16:59;13.38;;;8.07;;
75035;SDS011;64247;51.540;5.854;2022-10-31T14:19:04;20.00;;;11.07;;
75035;SDS011;64247;51.540;5.854;2022-10-31T14:23:49;17.30;;;10.02;;
75035;SDS011;64247;51.540;5.854;2022-10-31T14:25:52;20.27;;;9.73;;
75035;SDS011;64247;51.540;5.854;2022-10-31T14:27:54;17.67;;;7.95;;
75035;SDS011;64247;51.540;5.854;2022-10-31T14:29:55;16.48;;;8.68;;
75035;SDS011;64247;51.540;5.854;2022-10-31T14:32:22;18.17;;;9.77;;
75035;SDS011;64247;51.540;5.854;2022-10-31T14:34:32;16.17;;;8.32;;